Snow/Ice From: 17-12-2017 10:00 Until: 18-12-2017 06:00 warning for: Snow/Ice Level: Yellow info button

Although rather usual in this region, locally or potentially dangerous phenomena are expected. (such as local winds, summer thunderstorms, rising streams or high waves) Be aware and pay attention to the latest weather updates, especially if you carry out activities exposed to weather or close to a stream or shoreline. 


Meteo18 Weather Cam more information Meteo18 Weather Cam


Thunder radar more information blitzortung!


warning for Snow/Ice more information rain snow radar


Visit our other weather sites:

Template documentation
and downloads

And another site



Weather Underground History page Text

Daily Summary for June 7, 2016 Units:  Metric    English   Both
« Previous Day
Next Day »
Daily Weekly Monthly Yearly Custom
  High: Low: Average:
Temperature: 28.0 °C 12.2 °C 18.6 °C
Dew Point: 21.6 °C 11.7 °C 16.5 °C
Humidity: 99 % 59 % 89 %
Wind Speed: 8.0 km/h 0.0 km/h 0.4 km/h
Wind Gust: 20.9 km/h - -
Wind:- - SSE
Pressure: 1022.2 hPa 1018.8 hPa -
Precipitation: 16.3 mm    
Historical Graphs
 
 
Tabular Data for June 7, 2016
Time Temperature Dew Point Pressure Wind Wind Speed Wind Gust Humidity Rainfall Rate (Hourly)
00:02 15.6 °C 14.8 °C 1018.8 hPa Calm     95 % 0.0 mm
00:12 15.7 °C 15.1 °C 1018.8 hPa Calm     96 % 0.0 mm
00:17 15.6 °C 15.0 °C 1018.8 hPa Calm     96 % 0.0 mm
00:22 15.6 °C 15.0 °C 1018.8 hPa Calm     96 % 0.0 mm
00:32 15.3 °C 14.7 °C 1018.8 hPa Calm     96 % 0.0 mm
00:37 15.3 °C 14.7 °C 1018.8 hPa Calm     96 % 0.0 mm
00:42 15.3 °C 14.7 °C 1018.8 hPa Calm   1.6 km/h 96 % 0.0 mm
00:47 15.3 °C 14.7 °C 1018.8 hPa Calm   1.6 km/h 96 % 0.0 mm
00:52 15.2 °C 14.6 °C 1018.8 hPa Calm   1.6 km/h 96 % 0.0 mm
00:57 15.1 °C 14.5 °C 1018.8 hPa Calm     96 % 0.0 mm
01:02 15.1 °C 14.5 °C 1018.8 hPa Calm     96 % 0.0 mm
01:07 14.9 °C 14.3 °C 1018.8 hPa Calm     96 % 0.0 mm
01:12 14.7 °C 14.1 °C 1018.8 hPa Calm     96 % 0.0 mm
01:17 14.7 °C 14.1 °C 1019.2 hPa Calm     96 % 0.0 mm
01:22 14.9 °C 14.4 °C 1018.8 hPa Calm     97 % 0.0 mm
01:27 14.8 °C 14.2 °C 1019.2 hPa Calm     96 % 0.0 mm
01:32 14.7 °C 14.1 °C 1019.2 hPa Calm     96 % 0.0 mm
01:37 14.7 °C 14.1 °C 1019.2 hPa Calm     96 % 0.0 mm
01:42 14.7 °C 14.1 °C 1019.2 hPa Calm     96 % 0.0 mm
01:47 14.6 °C 14.0 °C 1019.2 hPa Calm     96 % 0.0 mm
01:52 14.6 °C 14.0 °C 1019.2 hPa Calm     96 % 0.0 mm
01:57 14.5 °C 13.9 °C 1019.2 hPa Calm     96 % 0.0 mm
02:02 14.6 °C 14.1 °C 1018.8 hPa Calm     97 % 0.0 mm
02:07 14.6 °C 14.1 °C 1018.8 hPa Calm     97 % 0.0 mm
02:12 14.4 °C 13.8 °C 1019.2 hPa Calm     96 % 0.0 mm
02:17 14.3 °C 13.7 °C 1019.2 hPa Calm     96 % 0.0 mm
02:22 14.1 °C 13.5 °C 1019.2 hPa Calm     96 % 0.0 mm
02:27 14.1 °C 13.5 °C 1018.8 hPa Calm     96 % 0.0 mm
02:32 13.9 °C 13.3 °C 1018.8 hPa Calm     96 % 0.0 mm
02:37 13.9 °C 13.3 °C 1018.8 hPa Calm     96 % 0.0 mm
02:42 13.9 °C 13.4 °C 1019.2 hPa Calm     97 % 0.0 mm
02:47 13.9 °C 13.4 °C 1018.8 hPa Calm     97 % 0.0 mm
02:57 13.8 °C 13.3 °C 1019.2 hPa Calm     97 % 0.0 mm
03:02 13.9 °C 13.4 °C 1018.8 hPa Calm     97 % 0.0 mm
03:07 13.7 °C 13.2 °C 1018.8 hPa Calm     97 % 0.0 mm
03:12 13.7 °C 13.2 °C 1019.2 hPa Calm     97 % 0.0 mm
03:17 13.8 °C 13.3 °C 1019.2 hPa Calm     97 % 0.0 mm
03:22 13.8 °C 13.3 °C 1019.2 hPa Calm     97 % 0.0 mm
03:27 13.7 °C 13.2 °C 1019.2 hPa Calm     97 % 0.0 mm
03:32 13.6 °C 13.1 °C 1019.2 hPa Calm     97 % 0.0 mm
03:37 13.6 °C 13.1 °C 1019.2 hPa Calm     97 % 0.0 mm
03:42 13.6 °C 13.1 °C 1019.2 hPa Calm     97 % 0.0 mm
03:47 13.7 °C 13.2 °C 1019.2 hPa Calm     97 % 0.0 mm
03:52 13.8 °C 13.3 °C 1019.2 hPa Calm     97 % 0.0 mm
04:02 13.5 °C 13.0 °C 1019.5 hPa Calm     97 % 0.0 mm
04:07 13.3 °C 12.8 °C 1019.5 hPa Calm     97 % 0.0 mm
04:12 13.2 °C 12.7 °C 1019.5 hPa Calm     97 % 0.0 mm
04:17 13.2 °C 12.7 °C 1019.5 hPa Calm     97 % 0.0 mm
04:32 13.2 °C 12.7 °C 1019.5 hPa Calm     97 % 0.0 mm
04:37 13.1 °C 12.6 °C 1019.5 hPa Calm     97 % 0.0 mm
04:42 13.1 °C 12.6 °C 1019.5 hPa Calm     97 % 0.0 mm
04:52 13.2 °C 12.7 °C 1019.5 hPa Calm     97 % 0.0 mm
04:57 13.1 °C 12.6 °C 1019.5 hPa Calm     97 % 0.0 mm
05:02 13.0 °C 12.5 °C 1019.5 hPa Calm     97 % 0.0 mm
05:12 12.8 °C 12.3 °C 1019.5 hPa Calm     97 % 0.0 mm
05:17 12.8 °C 12.3 °C 1019.5 hPa Calm     97 % 0.0 mm
05:22 12.8 °C 12.3 °C 1019.5 hPa Calm     97 % 0.0 mm
05:27 12.7 °C 12.2 °C 1019.5 hPa Calm     97 % 0.0 mm
05:32 12.7 °C 12.2 °C 1019.5 hPa Calm     97 % 0.0 mm
05:37 12.9 °C 12.6 °C 1019.5 hPa Calm     98 % 0.0 mm
05:42 12.9 °C 12.6 °C 1019.5 hPa Calm     98 % 0.0 mm
05:52 12.6 °C 12.1 °C 1019.5 hPa Calm     97 % 0.0 mm
05:57 12.6 °C 12.1 °C 1019.5 hPa Calm     97 % 0.0 mm
06:02 12.4 °C 11.9 °C 1019.9 hPa Calm     97 % 0.0 mm
06:12 12.3 °C 11.8 °C 1019.9 hPa Calm     97 % 0.0 mm
06:17 12.3 °C 12.0 °C 1019.9 hPa Calm     98 % 0.0 mm
06:22 12.2 °C 11.7 °C 1019.9 hPa Calm     97 % 0.0 mm
06:32 12.4 °C 12.1 °C 1019.9 hPa Calm     98 % 0.0 mm
06:37 12.5 °C 12.2 °C 1019.9 hPa Calm     98 % 0.0 mm
06:42 12.7 °C 12.4 °C 1019.9 hPa Calm     98 % 0.0 mm
06:52 13.0 °C 12.7 °C 1019.9 hPa Calm     98 % 0.0 mm
06:57 13.1 °C 12.8 °C 1019.9 hPa Calm     98 % 0.0 mm
07:02 13.2 °C 12.9 °C 1019.9 hPa Calm     98 % 0.0 mm
07:12 13.6 °C 13.3 °C 1019.9 hPa Calm     98 % 0.0 mm
07:17 13.7 °C 13.4 °C 1019.9 hPa Calm     98 % 0.0 mm
07:22 13.8 °C 13.5 °C 1019.9 hPa Calm     98 % 0.0 mm
07:32 14.3 °C 14.0 °C 1019.9 hPa Calm     98 % 0.0 mm
07:37 14.4 °C 14.1 °C 1019.9 hPa Calm     98 % 0.0 mm
07:42 14.6 °C 14.3 °C 1020.2 hPa Calm     98 % 0.0 mm
07:52 15.0 °C 14.7 °C 1020.2 hPa Calm     98 % 0.0 mm
07:57 15.0 °C 14.7 °C 1020.2 hPa Calm     98 % 0.0 mm
08:02 15.2 °C 14.9 °C 1020.5 hPa Calm     98 % 0.0 mm
08:12 15.7 °C 15.4 °C 1020.5 hPa Calm   1.6 km/h 98 % 0.0 mm
08:17 15.8 °C 15.5 °C 1020.5 hPa Calm   1.6 km/h 98 % 0.0 mm
08:22 16.1 °C 15.9 °C 1020.5 hPa Calm     99 % 0.0 mm
08:32 16.4 °C 16.1 °C 1020.5 hPa Calm     98 % 0.0 mm
08:37 16.8 °C 16.6 °C 1020.5 hPa Calm     99 % 0.0 mm
08:42 17.0 °C 16.8 °C 1020.5 hPa Calm     99 % 0.0 mm
08:47 17.2 °C 17.0 °C 1020.5 hPa Calm     99 % 0.0 mm
08:52 17.6 °C 17.4 °C 1020.9 hPa Calm     99 % 0.0 mm
08:57 18.0 °C 17.8 °C 1020.5 hPa Calm     99 % 0.0 mm
09:02 18.4 °C 18.2 °C 1020.9 hPa Calm   1.6 km/h 99 % 0.0 mm
09:07 18.7 °C 18.4 °C 1020.9 hPa Calm   1.6 km/h 98 % 0.0 mm
09:12 19.1 °C 18.8 °C 1020.9 hPa WSW 1.6 km/h 1.6 km/h 98 % 0.0 mm
09:17 19.6 °C 19.1 °C 1020.9 hPa Calm   3.2 km/h 97 % 0.0 mm
09:22 20.2 °C 19.2 °C 1020.9 hPa Calm   3.2 km/h 94 % 0.0 mm
09:32 21.0 °C 19.3 °C 1021.2 hPa Calm   3.2 km/h 90 % 0.0 mm
09:37 21.3 °C 19.2 °C 1021.2 hPa WSW 1.6 km/h 3.2 km/h 88 % 0.0 mm
09:42 21.6 °C 19.0 °C 1021.2 hPa Calm   3.2 km/h 85 % 0.0 mm
09:47 22.1 °C 19.3 °C 1021.2 hPa Calm   3.2 km/h 84 % 0.0 mm
09:52 22.2 °C 19.0 °C 1021.2 hPa Calm   3.2 km/h 82 % 0.0 mm
09:57 22.5 °C 18.7 °C 1021.2 hPa Calm   3.2 km/h 79 % 0.0 mm
10:02 23.0 °C 19.8 °C 1021.2 hPa WSW 3.2 km/h 3.2 km/h 82 % 0.0 mm
10:07 23.6 °C 20.1 °C 1021.2 hPa Calm   3.2 km/h 81 % 0.0 mm
10:12 23.5 °C 19.0 °C 1021.2 hPa Calm   6.4 km/h 76 % 0.0 mm
10:17 23.7 °C 20.0 °C 1021.2 hPa West 4.8 km/h 6.4 km/h 80 % 0.0 mm
10:22 23.6 °C 19.3 °C 1021.2 hPa WSW 3.2 km/h 6.4 km/h 77 % 0.0 mm
10:27 23.6 °C 19.5 °C 1021.2 hPa WSW 4.8 km/h 6.4 km/h 78 % 0.0 mm
10:32 23.9 °C 19.6 °C 1021.6 hPa WSW 1.6 km/h 6.4 km/h 77 % 0.0 mm
10:37 24.3 °C 20.2 °C 1021.6 hPa WSW 1.6 km/h 4.8 km/h 78 % 0.0 mm
10:42 24.5 °C 19.1 °C 1021.6 hPa Calm   4.8 km/h 72 % 0.0 mm
10:47 24.7 °C 19.3 °C 1021.6 hPa West 1.6 km/h 6.4 km/h 72 % 0.0 mm
10:52 24.9 °C 19.9 °C 1021.2 hPa Calm   6.4 km/h 74 % 0.0 mm
10:57 25.2 °C 19.8 °C 1021.6 hPa WSW 1.6 km/h 6.4 km/h 72 % 0.0 mm
11:02 25.4 °C 19.8 °C 1021.6 hPa WSW 1.6 km/h 6.4 km/h 71 % 0.0 mm
11:12 25.1 °C 19.7 °C 1021.6 hPa SE 3.2 km/h 9.7 km/h 72 % 0.0 mm
11:17 23.8 °C 18.9 °C 1021.6 hPa NE 8.0 km/h 9.7 km/h 74 % 0.0 mm
11:22 22.9 °C 18.4 °C 1021.6 hPa North 3.2 km/h 11.3 km/h 76 % 0.0 mm
11:27 22.4 °C 18.2 °C 1021.6 hPa Calm   11.3 km/h 77 % 0.0 mm
11:32 21.4 °C 16.4 °C 1021.6 hPa WSW 1.6 km/h 11.3 km/h 73 % 0.3 mm
11:37 20.1 °C 16.7 °C 1021.6 hPa Calm   20.9 km/h 81 % 7.1 mm
11:47 19.5 °C 17.6 °C 1021.6 hPa Calm   9.7 km/h 89 % 7.9 mm
11:52 19.8 °C 18.3 °C 1021.6 hPa Calm   1.6 km/h 91 % 7.9 mm
11:57 19.9 °C 18.6 °C 1021.2 hPa Calm     92 % 7.9 mm
12:02 20.2 °C 18.9 °C 1021.6 hPa Calm     92 % 7.9 mm
12:07 20.9 °C 19.7 °C 1021.6 hPa Calm     93 % 7.9 mm
12:12 21.3 °C 19.4 °C 1021.2 hPa Calm   3.2 km/h 89 % 7.9 mm
12:17 22.2 °C 20.3 °C 1021.6 hPa Calm   3.2 km/h 89 % 7.9 mm
12:22 23.1 °C 20.2 °C 1021.6 hPa Calm   3.2 km/h 84 % 7.9 mm
12:42 24.9 °C 20.4 °C 1021.6 hPa Calm   3.2 km/h 76 % 0.0 mm
12:47 25.6 °C 19.7 °C 1021.2 hPa Calm   3.2 km/h 70 % 0.0 mm
12:52 26.2 °C 21.6 °C 1021.2 hPa Calm   3.2 km/h 76 % 0.0 mm
12:57 26.5 °C 20.1 °C 1021.2 hPa Calm   3.2 km/h 68 % 0.0 mm
13:02 27.1 °C 20.7 °C 1021.2 hPa Calm   3.2 km/h 68 % 0.0 mm
13:12 27.0 °C 20.1 °C 1021.2 hPa Calm   3.2 km/h 66 % 0.0 mm
13:17 26.0 °C 19.4 °C 1020.9 hPa Calm   3.2 km/h 67 % 0.0 mm
13:27 24.3 °C 20.2 °C 1021.2 hPa Calm   6.4 km/h 78 % 0.0 mm
13:32 24.8 °C 20.5 °C 1020.9 hPa Calm   6.4 km/h 77 % 0.0 mm
13:37 25.4 °C 20.4 °C 1021.2 hPa East 1.6 km/h 4.8 km/h 74 % 0.0 mm
13:42 25.3 °C 17.5 °C 1020.9 hPa Calm   8.0 km/h 62 % 0.0 mm
13:47 25.7 °C 18.1 °C 1020.9 hPa Calm   9.7 km/h 63 % 0.0 mm
13:52 26.2 °C 18.8 °C 1020.9 hPa Calm   9.7 km/h 64 % 0.0 mm
14:02 25.3 °C 19.0 °C 1020.9 hPa Calm   6.4 km/h 68 % 0.0 mm
14:07 25.3 °C 19.4 °C 1020.9 hPa NE 3.2 km/h 6.4 km/h 70 % 0.0 mm
14:12 24.8 °C 19.4 °C 1020.9 hPa NE 3.2 km/h 4.8 km/h 72 % 0.0 mm
14:17 24.5 °C 18.9 °C 1020.9 hPa NNE 3.2 km/h 4.8 km/h 71 % 0.0 mm
14:22 24.3 °C 18.5 °C 1020.9 hPa Calm   4.8 km/h 70 % 0.0 mm
14:32 24.6 °C 17.6 °C 1020.9 hPa Calm   6.4 km/h 65 % 0.0 mm
14:42 24.8 °C 19.2 °C 1020.5 hPa Calm   4.8 km/h 71 % 0.0 mm
14:47 25.2 °C 20.0 °C 1020.5 hPa WSW 1.6 km/h 3.2 km/h 73 % 0.0 mm
14:52 25.3 °C 18.2 °C 1020.5 hPa Calm   3.2 km/h 65 % 0.0 mm
14:57 25.8 °C 19.4 °C 1020.5 hPa SW 1.6 km/h 4.8 km/h 68 % 0.0 mm
15:02 26.1 °C 18.0 °C 1020.5 hPa SW 1.6 km/h 4.8 km/h 61 % 0.0 mm
15:07 26.6 °C 19.2 °C 1020.5 hPa Calm   4.8 km/h 64 % 0.0 mm
15:12 26.8 °C 18.9 °C 1020.5 hPa WSW 1.6 km/h 4.8 km/h 62 % 0.0 mm
15:17 27.2 °C 18.8 °C 1020.5 hPa SW 3.2 km/h 6.4 km/h 60 % 0.0 mm
15:22 27.3 °C 18.6 °C 1020.2 hPa SW 1.6 km/h 6.4 km/h 59 % 0.0 mm
15:27 27.7 °C 19.0 °C 1020.2 hPa Calm   4.8 km/h 59 % 0.0 mm
15:32 28.0 °C 19.8 °C 1020.5 hPa NE 1.6 km/h 6.4 km/h 61 % 0.0 mm
15:37 27.4 °C 19.2 °C 1020.5 hPa NE 4.8 km/h 6.4 km/h 61 % 0.0 mm
15:42 26.1 °C 19.0 °C 1020.5 hPa NE 4.8 km/h 9.7 km/h 65 % 0.0 mm
15:47 25.1 °C 19.0 °C 1020.5 hPa NE 1.6 km/h 9.7 km/h 69 % 0.0 mm
15:52 24.7 °C 19.3 °C 1020.5 hPa Calm   9.7 km/h 72 % 0.0 mm
15:57 24.5 °C 18.9 °C 1020.5 hPa Calm   8.0 km/h 71 % 0.0 mm
16:02 24.4 °C 19.2 °C 1020.5 hPa Calm   4.8 km/h 73 % 0.0 mm
16:17 24.2 °C 19.1 °C 1020.5 hPa Calm   1.6 km/h 73 % 0.0 mm
16:22 24.1 °C 18.7 °C 1020.5 hPa Calm     72 % 0.0 mm
16:27 24.3 °C 19.6 °C 1020.5 hPa Calm   1.6 km/h 75 % 0.0 mm
16:32 24.2 °C 19.1 °C 1020.5 hPa Calm   1.6 km/h 73 % 0.0 mm
16:37 23.8 °C 18.2 °C 1020.5 hPa Calm   6.4 km/h 71 % 0.0 mm
16:42 23.4 °C 18.1 °C 1020.5 hPa WSW 3.2 km/h 6.4 km/h 72 % 0.0 mm
16:47 23.0 °C 18.1 °C 1020.5 hPa Calm   6.4 km/h 74 % 0.0 mm
16:52 22.6 °C 17.7 °C 1020.5 hPa SW 3.2 km/h 6.4 km/h 74 % 0.0 mm
16:57 22.1 °C 17.7 °C 1020.5 hPa SW 3.2 km/h 8.0 km/h 76 % 0.0 mm
17:02 21.7 °C 17.9 °C 1020.5 hPa Calm   9.7 km/h 79 % 0.0 mm
17:07 21.1 °C 17.7 °C 1020.5 hPa Calm   9.7 km/h 81 % 0.0 mm
17:12 20.5 °C 17.1 °C 1020.9 hPa NNE 3.2 km/h 9.7 km/h 81 % 0.0 mm
17:17 19.7 °C 16.7 °C 1021.2 hPa North 1.6 km/h 11.3 km/h 83 % 0.5 mm
17:22 19.1 °C 16.5 °C 1021.6 hPa NE 8.0 km/h 12.9 km/h 85 % 0.5 mm
17:27 18.3 °C 16.3 °C 1021.2 hPa Calm   12.9 km/h 88 % 3.3 mm
17:32 18.2 °C 16.5 °C 1020.9 hPa WSW 1.6 km/h 12.9 km/h 90 % 5.3 mm
17:37 18.1 °C 16.6 °C 1020.9 hPa Calm   9.7 km/h 91 % 6.1 mm
17:42 17.9 °C 16.4 °C 1020.9 hPa Calm   1.6 km/h 91 % 7.4 mm
17:47 17.7 °C 16.2 °C 1020.9 hPa Calm   3.2 km/h 91 % 7.9 mm
17:52 17.7 °C 16.4 °C 1020.5 hPa Calm   3.2 km/h 92 % 7.9 mm
17:57 17.7 °C 16.4 °C 1020.5 hPa Calm   3.2 km/h 92 % 7.9 mm
18:02 17.6 °C 16.3 °C 1020.5 hPa Calm   1.6 km/h 92 % 7.9 mm
18:07 17.6 °C 16.5 °C 1020.5 hPa Calm   1.6 km/h 93 % 7.9 mm
18:17 17.8 °C 16.8 °C 1020.5 hPa Calm     94 % 7.6 mm
18:22 18.0 °C 17.0 °C 1020.5 hPa Calm     94 % 7.1 mm
18:32 18.2 °C 17.2 °C 1020.5 hPa Calm     94 % 2.3 mm
18:37 18.3 °C 17.3 °C 1020.5 hPa Calm     94 % 1.3 mm
18:42 18.4 °C 17.6 °C 1020.5 hPa Calm     95 % 0.5 mm
18:47 18.6 °C 17.8 °C 1020.5 hPa Calm     95 % 0.5 mm
18:52 18.6 °C 17.6 °C 1020.5 hPa Calm     94 % 0.5 mm
18:57 18.7 °C 17.9 °C 1020.5 hPa Calm     95 % 0.5 mm
19:02 18.8 °C 17.8 °C 1020.5 hPa Calm     94 % 0.5 mm
19:07 18.8 °C 17.8 °C 1020.5 hPa Calm     94 % 0.5 mm
19:12 18.9 °C 18.1 °C 1020.5 hPa Calm     95 % 0.3 mm
19:17 18.9 °C 18.1 °C 1020.5 hPa Calm     95 % 0.3 mm
19:22 19.1 °C 18.3 °C 1020.5 hPa Calm     95 % 0.3 mm
19:27 19.1 °C 18.3 °C 1020.5 hPa Calm     95 % 0.3 mm
19:32 19.1 °C 18.1 °C 1020.5 hPa Calm     94 % 0.3 mm
19:37 19.1 °C 18.1 °C 1020.5 hPa Calm     94 % 0.3 mm
19:42 19.0 °C 18.0 °C 1020.5 hPa Calm     94 % 0.0 mm
19:47 18.8 °C 17.5 °C 1020.5 hPa Calm     92 % 0.0 mm
19:52 18.9 °C 17.2 °C 1020.5 hPa Calm   8.0 km/h 90 % 0.0 mm
19:57 18.9 °C 17.0 °C 1020.5 hPa ENE 1.6 km/h 8.0 km/h 89 % 0.0 mm
20:02 18.9 °C 16.9 °C 1020.5 hPa East 3.2 km/h 6.4 km/h 88 % 0.0 mm
20:17 18.9 °C 17.6 °C 1020.5 hPa Calm   3.2 km/h 92 % 0.0 mm
20:22 19.0 °C 17.7 °C 1020.5 hPa Calm   3.2 km/h 92 % 0.0 mm
20:27 18.9 °C 17.6 °C 1020.5 hPa Calm   1.6 km/h 92 % 0.0 mm
20:32 18.8 °C 17.5 °C 1020.5 hPa Calm     92 % 0.0 mm
20:37 18.8 °C 17.5 °C 1020.5 hPa Calm     92 % 0.0 mm
20:42 18.7 °C 17.5 °C 1020.5 hPa Calm     93 % 0.0 mm
20:47 18.7 °C 17.5 °C 1020.5 hPa Calm     93 % 0.0 mm
20:52 18.7 °C 17.5 °C 1020.5 hPa Calm     93 % 0.0 mm
20:57 18.7 °C 17.5 °C 1020.5 hPa Calm     93 % 0.0 mm
21:07 18.7 °C 17.5 °C 1020.5 hPa Calm     93 % 0.0 mm
21:12 18.6 °C 17.4 °C 1020.5 hPa Calm     93 % 0.0 mm
21:17 18.5 °C 17.3 °C 1020.5 hPa Calm     93 % 0.0 mm
21:22 18.3 °C 17.1 °C 1020.5 hPa Calm     93 % 0.0 mm
21:27 18.2 °C 17.0 °C 1020.9 hPa Calm     93 % 0.0 mm
21:32 18.1 °C 16.9 °C 1020.9 hPa Calm     93 % 0.0 mm
21:37 18.1 °C 17.1 °C 1020.9 hPa Calm     94 % 0.0 mm
21:42 18.0 °C 17.0 °C 1020.9 hPa Calm     94 % 0.0 mm
21:47 17.9 °C 16.9 °C 1020.9 hPa Calm     94 % 0.0 mm
21:52 17.7 °C 16.7 °C 1020.9 hPa Calm     94 % 0.0 mm
21:57 17.4 °C 16.4 °C 1021.2 hPa Calm     94 % 0.0 mm
22:02 17.2 °C 16.2 °C 1021.2 hPa Calm     94 % 0.0 mm
22:12 17.3 °C 16.5 °C 1021.6 hPa Calm   3.2 km/h 95 % 0.0 mm
22:17 17.3 °C 16.5 °C 1021.6 hPa Calm   3.2 km/h 95 % 0.0 mm
22:22 17.3 °C 16.5 °C 1021.6 hPa Calm   3.2 km/h 95 % 0.0 mm
22:27 17.3 °C 16.7 °C 1021.9 hPa Calm   1.6 km/h 96 % 0.0 mm
22:32 17.3 °C 16.5 °C 1021.9 hPa Calm   3.2 km/h 95 % 0.0 mm
22:37 17.2 °C 16.4 °C 1021.9 hPa Calm   3.2 km/h 95 % 0.0 mm
22:42 17.2 °C 16.4 °C 1022.2 hPa Calm   3.2 km/h 95 % 0.0 mm
22:47 17.2 °C 16.6 °C 1022.2 hPa SE 1.6 km/h 1.6 km/h 96 % 0.0 mm
22:52 17.2 °C 16.4 °C 1022.2 hPa Calm   6.4 km/h 95 % 0.0 mm
22:57 17.1 °C 16.3 °C 1022.2 hPa Calm   6.4 km/h 95 % 0.0 mm
23:02 17.0 °C 16.2 °C 1022.2 hPa Calm   6.4 km/h 95 % 0.0 mm
23:07 16.8 °C 15.8 °C 1021.9 hPa Calm   3.2 km/h 94 % 0.0 mm
23:12 16.7 °C 15.7 °C 1021.9 hPa Calm   1.6 km/h 94 % 0.0 mm
23:17 16.5 °C 15.5 °C 1021.9 hPa Calm   1.6 km/h 94 % 0.0 mm
23:22 16.3 °C 15.3 °C 1021.9 hPa Calm     94 % 0.0 mm
23:27 16.2 °C 15.4 °C 1021.9 hPa Calm     95 % 0.0 mm
23:32 16.2 °C 15.4 °C 1021.9 hPa Calm     95 % 0.0 mm
23:37 16.2 °C 15.4 °C 1021.9 hPa Calm     95 % 0.0 mm
23:42 16.2 °C 15.4 °C 1021.9 hPa Calm     95 % 0.0 mm
23:47 16.2 °C 15.4 °C 1021.9 hPa Calm     95 % 0.0 mm
23:52 16.3 °C 15.7 °C 1021.6 hPa Calm     96 % 0.0 mm
23:57 16.3 °C 15.7 °C 1021.9 hPa Calm     96 % 0.0 mm
Meteo18
Compliments of Weather Underground - 4 mb

Script developed by  Jim McMurry - jmcmurry@mwt.net Adapted for the template by  Wim van der Kuil - Leuven-Template.eu

You find our weather info also at:

European Weather Network

Weather Underground

Equipment we use:

Weather-station
Davis Vue

Weather-program
Meteohub

Weather-server
Raspberry PI 2 B+

Provider
1 and 1

Davis Vue

Meteohub

Raspberry PI 2 B+

1 and 1